sensor_id;sensor_type;location;lat;lon;timestamp;P1;durP1;ratioP1;P2;durP2;ratioP2
30398;SDS011;17195;50.838;7.214;2023-06-10T00:02:07;7.40;;;6.70;;
30398;SDS011;17195;50.838;7.214;2023-06-10T00:04:33;9.48;;;7.28;;
30398;SDS011;17195;50.838;7.214;2023-06-10T00:07:01;8.25;;;6.95;;
30398;SDS011;17195;50.838;7.214;2023-06-10T00:09:28;7.47;;;6.75;;
30398;SDS011;17195;50.838;7.214;2023-06-10T00:11:54;7.90;;;7.13;;
30398;SDS011;17195;50.838;7.214;2023-06-10T00:14:20;8.13;;;7.32;;
30398;SDS011;17195;50.838;7.214;2023-06-10T00:16:45;7.35;;;6.57;;
30398;SDS011;17195;50.838;7.214;2023-06-10T00:19:11;8.07;;;7.35;;
30398;SDS011;17195;50.838;7.214;2023-06-10T00:21:38;8.75;;;7.75;;
30398;SDS011;17195;50.838;7.214;2023-06-10T00:26:39;7.83;;;6.93;;
30398;SDS011;17195;50.838;7.214;2023-06-10T00:29:05;9.02;;;7.40;;
30398;SDS011;17195;50.838;7.214;2023-06-10T00:31:32;8.02;;;7.22;;
30398;SDS011;17195;50.838;7.214;2023-06-10T00:33:58;7.63;;;6.93;;
30398;SDS011;17195;50.838;7.214;2023-06-10T00:36:24;8.52;;;7.65;;
30398;SDS011;17195;50.838;7.214;2023-06-10T00:38:50;7.78;;;7.07;;
30398;SDS011;17195;50.838;7.214;2023-06-10T00:41:15;8.82;;;7.93;;
30398;SDS011;17195;50.838;7.214;2023-06-10T00:43:41;8.23;;;7.53;;
30398;SDS011;17195;50.838;7.214;2023-06-10T00:46:06;7.70;;;7.00;;
30398;SDS011;17195;50.838;7.214;2023-06-10T00:48:32;8.15;;;7.30;;
30398;SDS011;17195;50.838;7.214;2023-06-10T00:50:58;8.77;;;7.88;;
30398;SDS011;17195;50.838;7.214;2023-06-10T00:53:25;8.25;;;7.45;;
30398;SDS011;17195;50.838;7.214;2023-06-10T00:55:51;9.05;;;7.40;;
30398;SDS011;17195;50.838;7.214;2023-06-10T00:58:17;8.70;;;7.80;;
30398;SDS011;17195;50.838;7.214;2023-06-10T01:00:43;8.18;;;7.38;;
30398;SDS011;17195;50.838;7.214;2023-06-10T01:03:10;8.68;;;7.25;;
30398;SDS011;17195;50.838;7.214;2023-06-10T01:05:37;8.27;;;7.47;;
30398;SDS011;17195;50.838;7.214;2023-06-10T01:08:06;8.13;;;7.32;;
30398;SDS011;17195;50.838;7.214;2023-06-10T01:10:46;9.27;;;7.70;;
30398;SDS011;17195;50.838;7.214;2023-06-10T01:13:16;8.38;;;7.57;;
30398;SDS011;17195;50.838;7.214;2023-06-10T01:15:43;8.45;;;7.65;;
30398;SDS011;17195;50.838;7.214;2023-06-10T01:18:10;8.35;;;7.53;;
30398;SDS011;17195;50.838;7.214;2023-06-10T01:20:40;9.45;;;7.70;;
30398;SDS011;17195;50.838;7.214;2023-06-10T01:26:09;8.40;;;7.57;;
30398;SDS011;17195;50.838;7.214;2023-06-10T01:28:38;10.95;;;8.68;;
30398;SDS011;17195;50.838;7.214;2023-06-10T01:31:52;9.25;;;8.32;;
30398;SDS011;17195;50.838;7.214;2023-06-10T01:34:32;9.65;;;8.13;;
30398;SDS011;17195;50.838;7.214;2023-06-10T01:36:59;9.63;;;8.57;;
30398;SDS011;17195;50.838;7.214;2023-06-10T01:39:26;9.70;;;8.52;;
30398;SDS011;17195;50.838;7.214;2023-06-10T01:41:53;10.73;;;8.07;;
30398;SDS011;17195;50.838;7.214;2023-06-10T01:44:20;10.75;;;8.77;;
30398;SDS011;17195;50.838;7.214;2023-06-10T01:46:48;9.73;;;8.80;;
30398;SDS011;17195;50.838;7.214;2023-06-10T01:49:14;9.40;;;8.50;;
30398;SDS011;17195;50.838;7.214;2023-06-10T01:51:40;11.88;;;9.15;;
30398;SDS011;17195;50.838;7.214;2023-06-10T01:54:05;9.20;;;8.30;;
30398;SDS011;17195;50.838;7.214;2023-06-10T01:56:31;10.15;;;8.90;;
30398;SDS011;17195;50.838;7.214;2023-06-10T01:58:57;9.02;;;8.13;;
30398;SDS011;17195;50.838;7.214;2023-06-10T02:01:27;10.02;;;9.02;;
30398;SDS011;17195;50.838;7.214;2023-06-10T02:03:53;10.65;;;9.50;;
30398;SDS011;17195;50.838;7.214;2023-06-10T02:06:19;10.50;;;9.23;;
30398;SDS011;17195;50.838;7.214;2023-06-10T02:08:44;13.20;;;10.05;;
30398;SDS011;17195;50.838;7.214;2023-06-10T02:11:10;11.70;;;9.75;;
30398;SDS011;17195;50.838;7.214;2023-06-10T02:13:36;11.32;;;9.18;;
30398;SDS011;17195;50.838;7.214;2023-06-10T02:16:02;10.45;;;9.30;;
30398;SDS011;17195;50.838;7.214;2023-06-10T02:18:28;10.48;;;9.43;;
30398;SDS011;17195;50.838;7.214;2023-06-10T02:20:54;10.85;;;9.50;;
30398;SDS011;17195;50.838;7.214;2023-06-10T02:23:19;11.20;;;9.80;;
30398;SDS011;17195;50.838;7.214;2023-06-10T02:25:45;9.93;;;8.93;;
30398;SDS011;17195;50.838;7.214;2023-06-10T02:28:12;10.68;;;9.27;;
30398;SDS011;17195;50.838;7.214;2023-06-10T02:30:41;9.93;;;8.98;;
30398;SDS011;17195;50.838;7.214;2023-06-10T02:33:07;10.38;;;9.38;;
30398;SDS011;17195;50.838;7.214;2023-06-10T02:35:36;10.15;;;9.10;;
30398;SDS011;17195;50.838;7.214;2023-06-10T02:38:05;10.77;;;9.73;;
30398;SDS011;17195;50.838;7.214;2023-06-10T02:40:30;9.75;;;8.95;;
30398;SDS011;17195;50.838;7.214;2023-06-10T02:42:56;11.00;;;9.15;;
30398;SDS011;17195;50.838;7.214;2023-06-10T02:45:23;9.63;;;8.60;;
30398;SDS011;17195;50.838;7.214;2023-06-10T02:47:48;9.82;;;8.45;;
30398;SDS011;17195;50.838;7.214;2023-06-10T02:50:14;10.40;;;8.73;;
30398;SDS011;17195;50.838;7.214;2023-06-10T02:52:40;10.13;;;9.05;;
30398;SDS011;17195;50.838;7.214;2023-06-10T02:55:06;8.65;;;7.88;;
30398;SDS011;17195;50.838;7.214;2023-06-10T02:57:32;8.93;;;8.10;;
30398;SDS011;17195;50.838;7.214;2023-06-10T02:59:57;9.00;;;8.20;;
30398;SDS011;17195;50.838;7.214;2023-06-10T03:02:23;9.00;;;8.15;;
30398;SDS011;17195;50.838;7.214;2023-06-10T03:04:53;8.68;;;7.75;;
30398;SDS011;17195;50.838;7.214;2023-06-10T03:07:20;9.50;;;8.60;;
30398;SDS011;17195;50.838;7.214;2023-06-10T03:09:46;9.52;;;8.63;;
30398;SDS011;17195;50.838;7.214;2023-06-10T03:12:11;11.00;;;8.95;;
30398;SDS011;17195;50.838;7.214;2023-06-10T03:14:37;11.05;;;8.30;;
30398;SDS011;17195;50.838;7.214;2023-06-10T03:17:03;8.45;;;7.63;;
30398;SDS011;17195;50.838;7.214;2023-06-10T03:19:29;11.45;;;8.07;;
30398;SDS011;17195;50.838;7.214;2023-06-10T03:22:12;8.80;;;7.95;;
30398;SDS011;17195;50.838;7.214;2023-06-10T03:24:39;9.68;;;8.57;;
30398;SDS011;17195;50.838;7.214;2023-06-10T03:27:08;9.48;;;8.65;;
30398;SDS011;17195;50.838;7.214;2023-06-10T03:29:35;10.32;;;8.88;;
30398;SDS011;17195;50.838;7.214;2023-06-10T03:32:02;11.32;;;9.40;;
30398;SDS011;17195;50.838;7.214;2023-06-10T03:34:28;9.98;;;8.98;;
30398;SDS011;17195;50.838;7.214;2023-06-10T03:36:54;9.70;;;8.85;;
30398;SDS011;17195;50.838;7.214;2023-06-10T03:39:20;11.20;;;9.50;;
30398;SDS011;17195;50.838;7.214;2023-06-10T03:41:46;11.13;;;9.23;;
30398;SDS011;17195;50.838;7.214;2023-06-10T03:44:12;12.05;;;10.02;;
30398;SDS011;17195;50.838;7.214;2023-06-10T03:46:37;10.48;;;9.45;;
30398;SDS011;17195;50.838;7.214;2023-06-10T03:49:03;10.55;;;9.55;;
30398;SDS011;17195;50.838;7.214;2023-06-10T03:51:29;10.77;;;9.73;;
30398;SDS011;17195;50.838;7.214;2023-06-10T03:53:54;11.82;;;10.63;;
30398;SDS011;17195;50.838;7.214;2023-06-10T03:56:20;11.38;;;10.00;;
30398;SDS011;17195;50.838;7.214;2023-06-10T03:58:45;10.88;;;9.82;;
30398;SDS011;17195;50.838;7.214;2023-06-10T04:01:11;13.63;;;10.38;;
30398;SDS011;17195;50.838;7.214;2023-06-10T04:03:38;11.05;;;9.32;;
30398;SDS011;17195;50.838;7.214;2023-06-10T04:06:04;11.85;;;9.93;;
30398;SDS011;17195;50.838;7.214;2023-06-10T04:08:30;17.48;;;10.18;;
30398;SDS011;17195;50.838;7.214;2023-06-10T04:10:56;9.93;;;8.93;;
30398;SDS011;17195;50.838;7.214;2023-06-10T04:13:22;10.93;;;9.82;;
30398;SDS011;17195;50.838;7.214;2023-06-10T04:15:48;12.77;;;9.60;;
30398;SDS011;17195;50.838;7.214;2023-06-10T04:18:13;10.30;;;9.27;;
30398;SDS011;17195;50.838;7.214;2023-06-10T04:20:39;9.73;;;8.73;;
30398;SDS011;17195;50.838;7.214;2023-06-10T04:23:05;9.60;;;8.80;;
30398;SDS011;17195;50.838;7.214;2023-06-10T04:25:31;10.15;;;8.57;;
30398;SDS011;17195;50.838;7.214;2023-06-10T04:27:57;9.68;;;8.27;;
30398;SDS011;17195;50.838;7.214;2023-06-10T04:30:22;9.40;;;8.05;;
30398;SDS011;17195;50.838;7.214;2023-06-10T04:32:48;9.18;;;8.20;;
30398;SDS011;17195;50.838;7.214;2023-06-10T04:35:14;9.32;;;8.43;;
30398;SDS011;17195;50.838;7.214;2023-06-10T04:37:40;9.10;;;8.27;;
30398;SDS011;17195;50.838;7.214;2023-06-10T04:40:06;10.13;;;8.55;;
30398;SDS011;17195;50.838;7.214;2023-06-10T04:42:33;9.07;;;8.15;;
30398;SDS011;17195;50.838;7.214;2023-06-10T04:44:59;9.38;;;8.48;;
30398;SDS011;17195;50.838;7.214;2023-06-10T04:47:25;11.30;;;8.40;;
30398;SDS011;17195;50.838;7.214;2023-06-10T04:49:51;9.95;;;9.05;;
30398;SDS011;17195;50.838;7.214;2023-06-10T04:52:17;10.57;;;9.10;;
30398;SDS011;17195;50.838;7.214;2023-06-10T04:54:43;10.15;;;8.93;;
30398;SDS011;17195;50.838;7.214;2023-06-10T04:57:09;11.88;;;9.55;;
30398;SDS011;17195;50.838;7.214;2023-06-10T04:59:36;12.23;;;9.20;;
30398;SDS011;17195;50.838;7.214;2023-06-10T05:02:03;10.95;;;9.85;;
30398;SDS011;17195;50.838;7.214;2023-06-10T05:04:30;10.50;;;9.38;;
30398;SDS011;17195;50.838;7.214;2023-06-10T05:06:55;14.10;;;10.35;;
30398;SDS011;17195;50.838;7.214;2023-06-10T05:09:21;12.55;;;10.40;;
30398;SDS011;17195;50.838;7.214;2023-06-10T05:11:46;11.35;;;9.30;;
30398;SDS011;17195;50.838;7.214;2023-06-10T05:14:12;10.57;;;9.35;;
30398;SDS011;17195;50.838;7.214;2023-06-10T05:16:38;11.00;;;9.90;;
30398;SDS011;17195;50.838;7.214;2023-06-10T05:19:04;10.88;;;9.80;;
30398;SDS011;17195;50.838;7.214;2023-06-10T05:21:29;10.10;;;9.07;;
30398;SDS011;17195;50.838;7.214;2023-06-10T05:23:55;11.20;;;10.20;;
30398;SDS011;17195;50.838;7.214;2023-06-10T05:26:21;10.52;;;9.48;;
30398;SDS011;17195;50.838;7.214;2023-06-10T05:28:47;10.40;;;9.40;;
30398;SDS011;17195;50.838;7.214;2023-06-10T05:31:12;11.48;;;10.00;;
30398;SDS011;17195;50.838;7.214;2023-06-10T05:33:38;10.82;;;9.60;;
30398;SDS011;17195;50.838;7.214;2023-06-10T05:36:05;15.27;;;9.50;;
30398;SDS011;17195;50.838;7.214;2023-06-10T05:38:31;11.95;;;10.57;;
30398;SDS011;17195;50.838;7.214;2023-06-10T05:40:56;12.85;;;9.77;;
30398;SDS011;17195;50.838;7.214;2023-06-10T05:43:23;10.40;;;9.40;;
30398;SDS011;17195;50.838;7.214;2023-06-10T05:45:49;11.00;;;9.90;;
30398;SDS011;17195;50.838;7.214;2023-06-10T05:48:15;10.23;;;9.15;;
30398;SDS011;17195;50.838;7.214;2023-06-10T05:50:40;10.48;;;9.38;;
30398;SDS011;17195;50.838;7.214;2023-06-10T05:53:07;10.60;;;8.98;;
30398;SDS011;17195;50.838;7.214;2023-06-10T05:55:43;9.75;;;8.05;;
30398;SDS011;17195;50.838;7.214;2023-06-10T05:58:09;9.88;;;8.82;;
30398;SDS011;17195;50.838;7.214;2023-06-10T06:00:37;11.18;;;9.27;;
30398;SDS011;17195;50.838;7.214;2023-06-10T06:03:03;9.57;;;8.65;;
30398;SDS011;17195;50.838;7.214;2023-06-10T06:05:29;11.45;;;8.68;;
30398;SDS011;17195;50.838;7.214;2023-06-10T06:08:00;8.55;;;7.80;;
30398;SDS011;17195;50.838;7.214;2023-06-10T06:10:32;8.95;;;8.05;;
30398;SDS011;17195;50.838;7.214;2023-06-10T06:12:59;9.38;;;8.48;;
30398;SDS011;17195;50.838;7.214;2023-06-10T06:15:25;9.25;;;8.25;;
30398;SDS011;17195;50.838;7.214;2023-06-10T06:17:50;11.50;;;9.48;;
30398;SDS011;17195;50.838;7.214;2023-06-10T06:20:18;16.52;;;9.75;;
30398;SDS011;17195;50.838;7.214;2023-06-10T06:22:46;9.90;;;8.90;;
30398;SDS011;17195;50.838;7.214;2023-06-10T06:25:12;9.82;;;8.75;;
30398;SDS011;17195;50.838;7.214;2023-06-10T06:27:38;11.10;;;8.73;;
30398;SDS011;17195;50.838;7.214;2023-06-10T06:30:03;10.65;;;7.85;;
30398;SDS011;17195;50.838;7.214;2023-06-10T06:32:30;11.35;;;7.97;;
30398;SDS011;17195;50.838;7.214;2023-06-10T06:34:55;9.05;;;7.93;;
30398;SDS011;17195;50.838;7.214;2023-06-10T06:37:21;9.30;;;7.60;;
30398;SDS011;17195;50.838;7.214;2023-06-10T06:39:51;10.48;;;7.03;;
30398;SDS011;17195;50.838;7.214;2023-06-10T06:42:18;7.53;;;6.63;;
30398;SDS011;17195;50.838;7.214;2023-06-10T06:44:44;8.90;;;7.10;;
30398;SDS011;17195;50.838;7.214;2023-06-10T06:47:09;7.78;;;6.85;;
30398;SDS011;17195;50.838;7.214;2023-06-10T06:49:35;9.52;;;6.53;;
30398;SDS011;17195;50.838;7.214;2023-06-10T06:52:01;7.93;;;7.20;;
30398;SDS011;17195;50.838;7.214;2023-06-10T06:54:27;8.73;;;6.97;;
30398;SDS011;17195;50.838;7.214;2023-06-10T06:56:52;8.13;;;7.38;;
30398;SDS011;17195;50.838;7.214;2023-06-10T06:59:18;8.45;;;6.90;;
30398;SDS011;17195;50.838;7.214;2023-06-10T07:01:44;7.18;;;6.43;;
30398;SDS011;17195;50.838;7.214;2023-06-10T07:04:10;7.53;;;6.72;;
30398;SDS011;17195;50.838;7.214;2023-06-10T07:06:36;6.93;;;6.05;;
30398;SDS011;17195;50.838;7.214;2023-06-10T07:09:03;6.88;;;6.00;;
30398;SDS011;17195;50.838;7.214;2023-06-10T07:11:29;7.00;;;5.10;;
30398;SDS011;17195;50.838;7.214;2023-06-10T07:13:55;5.68;;;5.00;;
30398;SDS011;17195;50.838;7.214;2023-06-10T07:16:21;8.02;;;5.22;;
30398;SDS011;17195;50.838;7.214;2023-06-10T07:18:46;5.53;;;5.03;;
30398;SDS011;17195;50.838;7.214;2023-06-10T07:21:12;6.07;;;5.32;;
30398;SDS011;17195;50.838;7.214;2023-06-10T07:23:37;6.75;;;5.22;;
30398;SDS011;17195;50.838;7.214;2023-06-10T07:26:07;6.88;;;4.85;;
30398;SDS011;17195;50.838;7.214;2023-06-10T07:28:35;5.63;;;5.00;;
30398;SDS011;17195;50.838;7.214;2023-06-10T07:31:02;11.93;;;5.53;;
30398;SDS011;17195;50.838;7.214;2023-06-10T07:33:27;5.15;;;4.65;;
30398;SDS011;17195;50.838;7.214;2023-06-10T07:35:53;5.53;;;4.85;;
30398;SDS011;17195;50.838;7.214;2023-06-10T07:38:18;7.30;;;5.00;;
30398;SDS011;17195;50.838;7.214;2023-06-10T07:40:44;6.75;;;4.45;;
30398;SDS011;17195;50.838;7.214;2023-06-10T07:43:10;5.93;;;5.00;;
30398;SDS011;17195;50.838;7.214;2023-06-10T07:45:35;6.18;;;4.78;;
30398;SDS011;17195;50.838;7.214;2023-06-10T07:48:01;7.63;;;5.10;;
30398;SDS011;17195;50.838;7.214;2023-06-10T07:50:26;9.20;;;4.82;;
30398;SDS011;17195;50.838;7.214;2023-06-10T07:52:52;7.15;;;5.20;;
30398;SDS011;17195;50.838;7.214;2023-06-10T07:55:17;5.03;;;4.25;;
30398;SDS011;17195;50.838;7.214;2023-06-10T07:57:43;5.68;;;4.88;;
30398;SDS011;17195;50.838;7.214;2023-06-10T08:00:08;8.38;;;4.82;;
30398;SDS011;17195;50.838;7.214;2023-06-10T08:02:34;5.85;;;5.28;;
30398;SDS011;17195;50.838;7.214;2023-06-10T08:05:00;8.80;;;5.53;;
30398;SDS011;17195;50.838;7.214;2023-06-10T08:07:25;5.25;;;4.75;;
30398;SDS011;17195;50.838;7.214;2023-06-10T08:09:51;7.57;;;5.20;;
30398;SDS011;17195;50.838;7.214;2023-06-10T08:12:16;5.20;;;4.70;;
30398;SDS011;17195;50.838;7.214;2023-06-10T08:14:42;7.63;;;5.30;;
30398;SDS011;17195;50.838;7.214;2023-06-10T08:17:08;5.95;;;5.20;;
30398;SDS011;17195;50.838;7.214;2023-06-10T08:19:33;6.25;;;5.20;;
30398;SDS011;17195;50.838;7.214;2023-06-10T08:21:59;5.85;;;5.10;;
30398;SDS011;17195;50.838;7.214;2023-06-10T08:24:24;7.05;;;4.90;;
30398;SDS011;17195;50.838;7.214;2023-06-10T08:26:50;6.20;;;5.28;;
30398;SDS011;17195;50.838;7.214;2023-06-10T08:29:16;9.38;;;4.63;;
30398;SDS011;17195;50.838;7.214;2023-06-10T08:31:44;7.93;;;5.10;;
30398;SDS011;17195;50.838;7.214;2023-06-10T08:34:10;8.65;;;5.30;;
30398;SDS011;17195;50.838;7.214;2023-06-10T08:36:36;4.90;;;4.40;;
30398;SDS011;17195;50.838;7.214;2023-06-10T08:39:02;6.07;;;4.93;;
30398;SDS011;17195;50.838;7.214;2023-06-10T08:41:28;5.68;;;4.70;;
30398;SDS011;17195;50.838;7.214;2023-06-10T08:46:47;6.05;;;4.80;;
30398;SDS011;17195;50.838;7.214;2023-06-10T08:49:15;8.30;;;4.95;;
30398;SDS011;17195;50.838;7.214;2023-06-10T08:51:43;9.88;;;5.55;;
30398;SDS011;17195;50.838;7.214;2023-06-10T08:54:21;6.07;;;4.97;;
30398;SDS011;17195;50.838;7.214;2023-06-10T08:56:49;5.63;;;4.78;;
30398;SDS011;17195;50.838;7.214;2023-06-10T08:59:16;9.45;;;5.22;;
30398;SDS011;17195;50.838;7.214;2023-06-10T09:01:43;7.03;;;5.13;;
30398;SDS011;17195;50.838;7.214;2023-06-10T09:04:09;5.78;;;5.05;;
30398;SDS011;17195;50.838;7.214;2023-06-10T09:06:36;6.57;;;4.70;;
30398;SDS011;17195;50.838;7.214;2023-06-10T09:09:03;9.05;;;5.18;;
30398;SDS011;17195;50.838;7.214;2023-06-10T09:11:31;5.60;;;4.90;;
30398;SDS011;17195;50.838;7.214;2023-06-10T09:13:57;6.90;;;5.13;;
30398;SDS011;17195;50.838;7.214;2023-06-10T09:16:23;7.60;;;5.15;;
30398;SDS011;17195;50.838;7.214;2023-06-10T09:18:50;8.48;;;5.22;;
30398;SDS011;17195;50.838;7.214;2023-06-10T09:21:20;6.38;;;4.90;;
30398;SDS011;17195;50.838;7.214;2023-06-10T09:23:49;6.47;;;5.00;;
30398;SDS011;17195;50.838;7.214;2023-06-10T09:26:15;6.68;;;4.78;;
30398;SDS011;17195;50.838;7.214;2023-06-10T09:28:42;8.63;;;4.88;;
30398;SDS011;17195;50.838;7.214;2023-06-10T09:31:15;5.70;;;5.10;;
30398;SDS011;17195;50.838;7.214;2023-06-10T09:33:43;6.63;;;4.72;;
30398;SDS011;17195;50.838;7.214;2023-06-10T09:36:09;7.35;;;4.60;;
30398;SDS011;17195;50.838;7.214;2023-06-10T09:38:36;7.75;;;5.10;;
30398;SDS011;17195;50.838;7.214;2023-06-10T09:41:02;7.15;;;4.82;;
30398;SDS011;17195;50.838;7.214;2023-06-10T09:43:44;7.93;;;5.35;;
30398;SDS011;17195;50.838;7.214;2023-06-10T09:46:14;5.90;;;4.93;;
30398;SDS011;17195;50.838;7.214;2023-06-10T09:48:44;10.45;;;5.60;;
30398;SDS011;17195;50.838;7.214;2023-06-10T09:51:11;5.78;;;4.47;;
30398;SDS011;17195;50.838;7.214;2023-06-10T09:53:38;7.05;;;4.90;;
30398;SDS011;17195;50.838;7.214;2023-06-10T09:56:04;5.40;;;4.78;;
30398;SDS011;17195;50.838;7.214;2023-06-10T09:58:34;5.65;;;4.70;;
30398;SDS011;17195;50.838;7.214;2023-06-10T10:01:09;6.15;;;4.68;;
30398;SDS011;17195;50.838;7.214;2023-06-10T10:03:43;4.90;;;4.40;;
30398;SDS011;17195;50.838;7.214;2023-06-10T10:06:16;6.40;;;4.32;;
30398;SDS011;17195;50.838;7.214;2023-06-10T10:08:42;5.80;;;4.07;;
30398;SDS011;17195;50.838;7.214;2023-06-10T10:11:09;6.07;;;4.75;;
30398;SDS011;17195;50.838;7.214;2023-06-10T10:13:35;4.63;;;4.00;;
30398;SDS011;17195;50.838;7.214;2023-06-10T10:16:04;6.00;;;4.30;;
30398;SDS011;17195;50.838;7.214;2023-06-10T10:18:35;5.43;;;4.25;;
30398;SDS011;17195;50.838;7.214;2023-06-10T10:21:04;5.22;;;4.07;;
30398;SDS011;17195;50.838;7.214;2023-06-10T10:24:07;5.90;;;4.25;;
30398;SDS011;17195;50.838;7.214;2023-06-10T10:26:28;6.53;;;4.40;;
30398;SDS011;17195;50.838;7.214;2023-06-10T10:29:07;7.72;;;3.85;;
30398;SDS011;17195;50.838;7.214;2023-06-10T10:31:39;4.60;;;4.13;;
30398;SDS011;17195;50.838;7.214;2023-06-10T10:34:10;5.15;;;4.22;;
30398;SDS011;17195;50.838;7.214;2023-06-10T10:36:40;6.72;;;4.20;;
30398;SDS011;17195;50.838;7.214;2023-06-10T10:39:06;7.07;;;4.00;;
30398;SDS011;17195;50.838;7.214;2023-06-10T10:41:32;6.78;;;4.35;;
30398;SDS011;17195;50.838;7.214;2023-06-10T10:43:58;7.45;;;4.25;;
30398;SDS011;17195;50.838;7.214;2023-06-10T10:46:25;7.80;;;4.47;;
30398;SDS011;17195;50.838;7.214;2023-06-10T10:48:54;5.55;;;4.25;;
30398;SDS011;17195;50.838;7.214;2023-06-10T10:51:22;5.10;;;3.88;;
30398;SDS011;17195;50.838;7.214;2023-06-10T10:54:09;5.00;;;3.95;;
30398;SDS011;17195;50.838;7.214;2023-06-10T10:56:36;4.22;;;3.85;;
30398;SDS011;17195;50.838;7.214;2023-06-10T10:59:05;6.03;;;4.18;;
30398;SDS011;17195;50.838;7.214;2023-06-10T11:01:40;5.05;;;4.55;;
30398;SDS011;17195;50.838;7.214;2023-06-10T11:04:07;6.18;;;4.07;;
30398;SDS011;17195;50.838;7.214;2023-06-10T11:06:34;4.35;;;3.95;;
30398;SDS011;17195;50.838;7.214;2023-06-10T11:09:00;5.32;;;4.20;;
30398;SDS011;17195;50.838;7.214;2023-06-10T11:11:26;4.53;;;4.07;;
30398;SDS011;17195;50.838;7.214;2023-06-10T11:16:29;7.38;;;4.00;;
30398;SDS011;17195;50.838;7.214;2023-06-10T11:18:55;6.47;;;4.20;;
30398;SDS011;17195;50.838;7.214;2023-06-10T11:21:22;4.47;;;4.05;;
30398;SDS011;17195;50.838;7.214;2023-06-10T11:23:50;6.50;;;3.92;;
30398;SDS011;17195;50.838;7.214;2023-06-10T11:26:20;6.95;;;4.72;;
30398;SDS011;17195;50.838;7.214;2023-06-10T11:31:22;4.18;;;3.78;;
30398;SDS011;17195;50.838;7.214;2023-06-10T11:33:52;6.18;;;4.00;;
30398;SDS011;17195;50.838;7.214;2023-06-10T11:36:20;5.13;;;4.18;;
30398;SDS011;17195;50.838;7.214;2023-06-10T11:38:46;5.22;;;4.38;;
30398;SDS011;17195;50.838;7.214;2023-06-10T11:41:12;6.88;;;3.80;;
30398;SDS011;17195;50.838;7.214;2023-06-10T11:43:45;6.80;;;3.70;;
30398;SDS011;17195;50.838;7.214;2023-06-10T11:46:12;6.53;;;3.95;;
30398;SDS011;17195;50.838;7.214;2023-06-10T11:48:38;5.30;;;4.13;;
30398;SDS011;17195;50.838;7.214;2023-06-10T11:51:07;7.10;;;3.90;;
30398;SDS011;17195;50.838;7.214;2023-06-10T11:53:33;12.05;;;4.28;;
30398;SDS011;17195;50.838;7.214;2023-06-10T11:55:59;8.52;;;4.13;;
30398;SDS011;17195;50.838;7.214;2023-06-10T11:58:25;5.28;;;3.85;;
30398;SDS011;17195;50.838;7.214;2023-06-10T12:00:51;5.00;;;3.65;;
30398;SDS011;17195;50.838;7.214;2023-06-10T12:03:24;4.25;;;3.85;;
30398;SDS011;17195;50.838;7.214;2023-06-10T12:06:00;6.30;;;4.95;;
30398;SDS011;17195;50.838;7.214;2023-06-10T12:08:27;6.18;;;5.57;;
30398;SDS011;17195;50.838;7.214;2023-06-10T12:10:53;6.40;;;4.03;;
30398;SDS011;17195;50.838;7.214;2023-06-10T12:13:20;4.05;;;3.60;;
30398;SDS011;17195;50.838;7.214;2023-06-10T12:15:46;5.22;;;3.78;;
30398;SDS011;17195;50.838;7.214;2023-06-10T12:18:15;6.07;;;3.70;;
30398;SDS011;17195;50.838;7.214;2023-06-10T12:20:45;4.50;;;3.63;;
30398;SDS011;17195;50.838;7.214;2023-06-10T12:23:11;5.68;;;3.90;;
30398;SDS011;17195;50.838;7.214;2023-06-10T12:25:38;4.47;;;3.38;;
30398;SDS011;17195;50.838;7.214;2023-06-10T12:28:04;3.63;;;3.33;;
30398;SDS011;17195;50.838;7.214;2023-06-10T12:30:31;9.52;;;3.92;;
30398;SDS011;17195;50.838;7.214;2023-06-10T12:32:57;4.15;;;3.35;;
30398;SDS011;17195;50.838;7.214;2023-06-10T12:35:26;5.07;;;3.42;;
30398;SDS011;17195;50.838;7.214;2023-06-10T12:43:02;4.20;;;3.60;;
30398;SDS011;17195;50.838;7.214;2023-06-10T12:45:28;4.35;;;3.10;;
30398;SDS011;17195;50.838;7.214;2023-06-10T12:50:31;3.97;;;3.65;;
30398;SDS011;17195;50.838;7.214;2023-06-10T12:52:57;4.68;;;3.55;;
30398;SDS011;17195;50.838;7.214;2023-06-10T12:55:24;4.80;;;3.35;;
30398;SDS011;17195;50.838;7.214;2023-06-10T12:57:50;3.50;;;3.20;;
30398;SDS011;17195;50.838;7.214;2023-06-10T13:00:17;3.20;;;2.88;;
30398;SDS011;17195;50.838;7.214;2023-06-10T13:02:43;6.95;;;3.45;;
30398;SDS011;17195;50.838;7.214;2023-06-10T13:05:09;4.10;;;3.05;;
30398;SDS011;17195;50.838;7.214;2023-06-10T13:07:34;6.15;;;3.25;;
30398;SDS011;17195;50.838;7.214;2023-06-10T13:10:00;3.95;;;3.13;;
30398;SDS011;17195;50.838;7.214;2023-06-10T13:12:26;6.82;;;3.13;;
30398;SDS011;17195;50.838;7.214;2023-06-10T13:14:54;3.90;;;3.15;;
30398;SDS011;17195;50.838;7.214;2023-06-10T13:17:20;51.78;;;37.15;;
30398;SDS011;17195;50.838;7.214;2023-06-10T13:19:45;67.90;;;51.42;;
30398;SDS011;17195;50.838;7.214;2023-06-10T13:22:11;9.13;;;6.95;;
30398;SDS011;17195;50.838;7.214;2023-06-10T13:24:38;9.38;;;8.48;;
30398;SDS011;17195;50.838;7.214;2023-06-10T13:27:04;7.65;;;4.25;;
30398;SDS011;17195;50.838;7.214;2023-06-10T13:29:31;6.70;;;3.35;;
30398;SDS011;17195;50.838;7.214;2023-06-10T13:31:57;5.82;;;3.58;;
30398;SDS011;17195;50.838;7.214;2023-06-10T13:34:22;3.90;;;3.50;;
30398;SDS011;17195;50.838;7.214;2023-06-10T13:36:48;7.20;;;3.70;;
30398;SDS011;17195;50.838;7.214;2023-06-10T13:39:13;4.70;;;3.40;;
30398;SDS011;17195;50.838;7.214;2023-06-10T13:41:40;3.60;;;3.30;;
30398;SDS011;17195;50.838;7.214;2023-06-10T13:44:06;3.88;;;3.20;;
30398;SDS011;17195;50.838;7.214;2023-06-10T13:46:32;4.10;;;3.40;;
30398;SDS011;17195;50.838;7.214;2023-06-10T13:48:57;3.75;;;3.38;;
30398;SDS011;17195;50.838;7.214;2023-06-10T13:51:23;6.28;;;3.10;;
30398;SDS011;17195;50.838;7.214;2023-06-10T13:53:48;4.22;;;3.33;;
30398;SDS011;17195;50.838;7.214;2023-06-10T13:56:16;3.90;;;3.08;;
30398;SDS011;17195;50.838;7.214;2023-06-10T13:58:42;8.10;;;3.33;;
30398;SDS011;17195;50.838;7.214;2023-06-10T14:01:08;3.92;;;3.42;;
30398;SDS011;17195;50.838;7.214;2023-06-10T14:03:34;3.97;;;3.53;;
30398;SDS011;17195;50.838;7.214;2023-06-10T14:05:59;5.85;;;3.28;;
30398;SDS011;17195;50.838;7.214;2023-06-10T14:08:25;5.15;;;3.28;;
30398;SDS011;17195;50.838;7.214;2023-06-10T14:10:50;3.35;;;3.05;;
30398;SDS011;17195;50.838;7.214;2023-06-10T14:13:16;5.88;;;3.35;;
30398;SDS011;17195;50.838;7.214;2023-06-10T14:15:42;3.88;;;3.40;;
30398;SDS011;17195;50.838;7.214;2023-06-10T14:18:08;6.38;;;3.22;;
30398;SDS011;17195;50.838;7.214;2023-06-10T14:20:34;6.57;;;3.67;;
30398;SDS011;17195;50.838;7.214;2023-06-10T14:22:59;6.78;;;3.50;;
30398;SDS011;17195;50.838;7.214;2023-06-10T14:25:25;5.55;;;3.20;;
30398;SDS011;17195;50.838;7.214;2023-06-10T14:27:50;7.10;;;3.58;;
30398;SDS011;17195;50.838;7.214;2023-06-10T14:30:16;3.78;;;3.22;;
30398;SDS011;17195;50.838;7.214;2023-06-10T14:32:42;4.13;;;3.13;;
30398;SDS011;17195;50.838;7.214;2023-06-10T14:35:08;4.53;;;2.90;;
30398;SDS011;17195;50.838;7.214;2023-06-10T14:37:34;4.47;;;3.25;;
30398;SDS011;17195;50.838;7.214;2023-06-10T14:39:59;3.97;;;2.90;;
30398;SDS011;17195;50.838;7.214;2023-06-10T14:42:25;5.15;;;3.13;;
30398;SDS011;17195;50.838;7.214;2023-06-10T14:44:51;4.78;;;2.92;;
30398;SDS011;17195;50.838;7.214;2023-06-10T14:47:16;2.97;;;2.47;;
30398;SDS011;17195;50.838;7.214;2023-06-10T14:49:42;6.55;;;3.03;;
30398;SDS011;17195;50.838;7.214;2023-06-10T14:52:08;5.35;;;3.33;;
30398;SDS011;17195;50.838;7.214;2023-06-10T14:54:34;4.28;;;2.85;;
30398;SDS011;17195;50.838;7.214;2023-06-10T14:57:00;5.38;;;4.13;;
30398;SDS011;17195;50.838;7.214;2023-06-10T14:59:26;3.67;;;2.90;;
30398;SDS011;17195;50.838;7.214;2023-06-10T15:01:51;3.13;;;2.67;;
30398;SDS011;17195;50.838;7.214;2023-06-10T15:04:17;3.53;;;3.22;;